Time;durP1;ratioP1;P1;durP2;ratioP2;P2;SDS_P1;SDS_P2;PMS_P1;PMS_P2;Temp;Humidity;BMP_temperature;BMP_pressure;BME280_temperature;BME280_humidity;BME280_pressure;Samples;Min_cycle;Max_cycle;Signal;HPM_P1;HPM_P2
2022/07/22 00:01:04;;;;;;;4.57;4.18;;;;;;;;;;5093164;28;20232;-88
2022/07/22 00:03:31;;;;;;;5.20;4.68;;;;;;;;;;5093168;28;20618;-88
2022/07/22 00:05:58;;;;;;;4.95;4.30;;;;;;;;;;5093370;28;20756;-88
2022/07/22 00:08:25;;;;;;;5.13;4.60;;;;;;;;;;5093045;28;20236;-88
2022/07/22 00:10:52;;;;;;;7.10;4.93;;;;;;;;;;5093822;28;20229;-88
2022/07/22 00:13:19;;;;;;;6.72;5.07;;;;;;;;;;5092984;28;20232;-88
2022/07/22 00:15:47;;;;;;;7.82;5.53;;;;;;;;;;5093640;28;20204;-88
2022/07/22 00:18:15;;;;;;;6.22;4.93;;;;;;;;;;5092525;28;20232;-88
2022/07/22 00:20:43;;;;;;;5.43;4.93;;;;;;;;;;5093658;28;20228;-88
2022/07/22 00:23:10;;;;;;;5.18;4.68;;;;;;;;;;5093653;28;20240;-88
2022/07/22 00:25:37;;;;;;;5.45;4.95;;;;;;;;;;5093836;28;20205;-88
2022/07/22 00:28:04;;;;;;;6.57;5.38;;;;;;;;;;5093611;28;20236;-88
2022/07/22 00:30:31;;;;;;;10.57;5.60;;;;;;;;;;5093986;28;20642;-88
2022/07/22 00:32:58;;;;;;;5.65;5.07;;;;;;;;;;5093338;28;20591;-88
2022/07/22 00:35:27;;;;;;;5.55;4.88;;;;;;;;;;5093870;28;20212;-89
2022/07/22 00:37:54;;;;;;;8.10;5.18;;;;;;;;;;5093214;28;20232;-88
2022/07/22 00:40:21;;;;;;;5.68;4.97;;;;;;;;;;5093801;28;20220;-88
2022/07/22 00:42:49;;;;;;;5.80;5.20;;;;;;;;;;5092938;28;20600;-88
2022/07/22 00:45:16;;;;;;;6.70;5.55;;;;;;;;;;5105223;28;20204;-88
2022/07/22 00:47:43;;;;;;;9.35;5.88;;;;;;;;;;5093678;28;20696;-88
2022/07/22 00:50:10;;;;;;;6.68;5.65;;;;;;;;;;5094000;28;20224;-89
2022/07/22 00:52:39;;;;;;;9.05;5.80;;;;;;;;;;5093282;28;20695;-88
2022/07/22 00:55:07;;;;;;;7.05;5.35;;;;;;;;;;5093702;28;20227;-89
2022/07/22 00:57:34;;;;;;;7.13;5.25;;;;;;;;;;5096684;28;20205;-89
2022/07/22 01:00:01;;;;;;;6.55;5.53;;;;;;;;;;5094526;28;20229;-88
2022/07/22 01:02:28;;;;;;;6.32;5.68;;;;;;;;;;5092842;28;20228;-88
2022/07/22 01:04:55;;;;;;;6.72;5.60;;;;;;;;;;5092648;28;20675;-88
2022/07/22 01:07:22;;;;;;;6.03;5.43;;;;;;;;;;5092682;28;20223;-89
2022/07/22 01:09:56;;;;;;;6.50;5.00;;;;;;;;;;5092865;28;20715;-88
2022/07/22 01:12:24;;;;;;;7.13;5.55;;;;;;;;;;5093138;28;20191;-88
2022/07/22 01:14:51;;;;;;;7.00;5.88;;;;;;;;;;5092995;28;20197;-88
2022/07/22 01:17:18;;;;;;;6.60;5.68;;;;;;;;;;5093412;28;20215;-89
2022/07/22 01:19:45;;;;;;;6.55;5.88;;;;;;;;;;5093284;28;20217;-88
2022/07/22 01:22:13;;;;;;;6.22;5.70;;;;;;;;;;5093475;28;20576;-88
2022/07/22 01:24:40;;;;;;;6.18;5.57;;;;;;;;;;5092316;28;20291;-88
2022/07/22 01:27:07;;;;;;;6.90;6.18;;;;;;;;;;5093578;28;20279;-88
2022/07/22 01:29:35;;;;;;;7.38;6.25;;;;;;;;;;5094644;28;20243;-88
2022/07/22 01:32:02;;;;;;;7.03;6.32;;;;;;;;;;5107926;28;20215;-88
2022/07/22 01:34:29;;;;;;;6.43;5.75;;;;;;;;;;5098362;28;20236;-88
2022/07/22 01:36:56;;;;;;;6.88;6.13;;;;;;;;;;5097991;28;20207;-89
2022/07/22 01:39:25;;;;;;;7.13;6.43;;;;;;;;;;5106990;28;20232;-89
2022/07/22 01:41:52;;;;;;;6.22;5.63;;;;;;;;;;5102986;28;20200;-88
2022/07/22 01:44:19;;;;;;;7.45;6.07;;;;;;;;;;5097061;28;20726;-88
2022/07/22 01:46:46;;;;;;;7.75;6.72;;;;;;;;;;5097723;28;20208;-88
2022/07/22 01:49:14;;;;;;;7.10;6.30;;;;;;;;;;5096157;28;20242;-88
2022/07/22 01:51:42;;;;;;;7.00;6.30;;;;;;;;;;5096907;28;20275;-88
2022/07/22 01:54:09;;;;;;;7.32;6.43;;;;;;;;;;5095600;28;20624;-88
2022/07/22 01:56:37;;;;;;;7.40;6.65;;;;;;;;;;5096456;28;20205;-88
2022/07/22 01:59:04;;;;;;;7.47;6.70;;;;;;;;;;5095430;28;20239;-88
2022/07/22 02:01:31;;;;;;;7.10;6.40;;;;;;;;;;5096539;28;20224;-89
2022/07/22 02:03:59;;;;;;;7.45;6.40;;;;;;;;;;5095797;28;20237;-88
2022/07/22 02:06:26;;;;;;;8.95;6.32;;;;;;;;;;5097404;28;20203;-89
2022/07/22 02:08:53;;;;;;;7.13;6.43;;;;;;;;;;5109552;28;20700;-88
2022/07/22 02:11:20;;;;;;;7.93;6.75;;;;;;;;;;5096791;28;20699;-89
2022/07/22 02:13:48;;;;;;;8.00;6.60;;;;;;;;;;5095673;28;20232;-88
2022/07/22 02:16:15;;;;;;;6.20;5.60;;;;;;;;;;5096469;28;20215;-88
2022/07/22 02:18:42;;;;;;;7.25;6.55;;;;;;;;;;5095005;28;20315;-88
2022/07/22 02:21:09;;;;;;;7.55;6.40;;;;;;;;;;5095864;28;20310;-88
2022/07/22 02:23:37;;;;;;;8.10;6.78;;;;;;;;;;5095119;28;20233;-88
2022/07/22 02:26:04;;;;;;;9.20;6.95;;;;;;;;;;5095989;28;20201;-88
2022/07/22 02:28:31;;;;;;;7.10;6.40;;;;;;;;;;5095325;28;20239;-89
2022/07/22 02:30:59;;;;;;;8.20;6.28;;;;;;;;;;5095578;28;20607;-89
2022/07/22 02:33:26;;;;;;;7.32;6.63;;;;;;;;;;5095147;28;20255;-89
2022/07/22 02:35:53;;;;;;;7.20;6.00;;;;;;;;;;5095798;28;20209;-88
2022/07/22 02:38:20;;;;;;;8.30;6.50;;;;;;;;;;5094776;28;20724;-88
2022/07/22 02:40:48;;;;;;;8.18;6.72;;;;;;;;;;5094743;28;20224;-88
2022/07/22 02:43:15;;;;;;;7.65;6.38;;;;;;;;;;5094737;28;20608;-88
2022/07/22 02:45:42;;;;;;;8.00;6.20;;;;;;;;;;5095525;28;20212;-88
2022/07/22 02:48:10;;;;;;;7.40;6.65;;;;;;;;;;5095096;28;20236;-89
2022/07/22 02:50:46;;;;;;;6.88;6.18;;;;;;;;;;5094961;28;20224;-88
2022/07/22 02:53:13;;;;;;;9.07;6.68;;;;;;;;;;5094859;28;20644;-88
2022/07/22 02:55:40;;;;;;;6.70;6.05;;;;;;;;;;5095454;28;20209;-88
2022/07/22 02:58:08;;;;;;;8.60;7.18;;;;;;;;;;5094617;28;20232;-88
2022/07/22 03:00:35;;;;;;;9.20;6.95;;;;;;;;;;5094770;28;20235;-88
2022/07/22 03:03:02;;;;;;;7.60;6.55;;;;;;;;;;5094531;28;20232;-89
2022/07/22 03:05:31;;;;;;;6.90;6.03;;;;;;;;;;5094801;28;20569;-88
2022/07/22 03:07:58;;;;;;;9.18;6.78;;;;;;;;;;5094663;28;20611;-89
2022/07/22 03:10:25;;;;;;;8.50;6.93;;;;;;;;;;5095085;28;20235;-88
2022/07/22 03:12:52;;;;;;;7.80;6.93;;;;;;;;;;5094132;28;20644;-88
2022/07/22 03:15:19;;;;;;;9.70;6.80;;;;;;;;;;5094781;28;20570;-88
2022/07/22 03:17:46;;;;;;;10.95;7.80;;;;;;;;;;5094244;28;20591;-88
2022/07/22 03:20:13;;;;;;;9.00;6.50;;;;;;;;;;5094232;28;20699;-88
2022/07/22 03:22:42;;;;;;;7.95;6.82;;;;;;;;;;5094040;28;20255;-88
2022/07/22 03:25:09;;;;;;;7.93;6.82;;;;;;;;;;5094587;28;20208;-87
2022/07/22 03:27:36;;;;;;;9.45;7.57;;;;;;;;;;5093656;28;20232;-89
2022/07/22 03:30:04;;;;;;;7.75;6.85;;;;;;;;;;5093942;28;20232;-88
2022/07/22 03:32:31;;;;;;;10.02;6.82;;;;;;;;;;5093583;28;20201;-88
2022/07/22 03:34:58;;;;;;;8.23;6.70;;;;;;;;;;5094221;28;20490;-88
2022/07/22 03:37:25;;;;;;;7.87;6.30;;;;;;;;;;5094040;28;20627;-88
2022/07/22 03:39:53;;;;;;;7.35;6.63;;;;;;;;;;5094127;28;20869;-88
2022/07/22 03:42:20;;;;;;;9.30;6.32;;;;;;;;;;5093728;28;20703;-88
2022/07/22 03:44:47;;;;;;;7.10;6.33;;;;;;;;;;5094805;28;20208;-88
2022/07/22 03:47:18;;;;;;;9.30;6.87;;;;;;;;;;5094441;28;20205;-88
2022/07/22 03:49:45;;;;;;;8.07;7.03;;;;;;;;;;5093636;28;20716;-89
2022/07/22 03:52:13;;;;;;;8.20;6.13;;;;;;;;;;5093429;28;20207;-88
2022/07/22 03:54:40;;;;;;;7.10;6.03;;;;;;;;;;5093503;28;20256;-88
2022/07/22 03:57:08;;;;;;;10.53;6.40;;;;;;;;;;5094226;28;20915;-88
2022/07/22 03:59:35;;;;;;;7.60;6.30;;;;;;;;;;5093977;28;20716;-88
2022/07/22 04:02:02;;;;;;;9.13;6.60;;;;;;;;;;5094243;28;20211;-88
2022/07/22 04:04:29;;;;;;;9.03;6.43;;;;;;;;;;5093868;28;20236;-88
2022/07/22 04:06:57;;;;;;;6.70;5.83;;;;;;;;;;5094126;28;20222;-88
2022/07/22 04:09:24;;;;;;;9.40;6.40;;;;;;;;;;5093523;28;20247;-88
2022/07/22 04:11:51;;;;;;;9.73;6.93;;;;;;;;;;5094056;28;20224;-88
2022/07/22 04:14:20;;;;;;;8.33;6.37;;;;;;;;;;5093998;28;20232;-88
2022/07/22 04:16:47;;;;;;;7.33;5.93;;;;;;;;;;5093960;28;20203;-88
2022/07/22 04:19:14;;;;;;;9.47;6.63;;;;;;;;;;5093415;28;20240;-88
2022/07/22 04:21:41;;;;;;;10.13;7.03;;;;;;;;;;5093925;28;20616;-88
2022/07/22 04:24:08;;;;;;;7.83;6.73;;;;;;;;;;5094730;28;20613;-88
2022/07/22 04:26:36;;;;;;;8.60;6.60;;;;;;;;;;5093826;28;20201;-88
2022/07/22 04:29:03;;;;;;;10.53;6.20;;;;;;;;;;5093419;28;20239;-87
2022/07/22 04:31:32;;;;;;;6.37;5.70;;;;;;;;;;5093541;28;20224;-88
2022/07/22 04:33:59;;;;;;;5.93;5.30;;;;;;;;;;5093311;28;20232;-88
2022/07/22 04:36:26;;;;;;;9.23;6.00;;;;;;;;;;5094427;28;20209;-89
2022/07/22 04:38:54;;;;;;;8.80;7.10;;;;;;;;;;5094160;28;20718;-89
2022/07/22 04:41:21;;;;;;;8.70;7.73;;;;;;;;;;5094653;28;20205;-90
2022/07/22 04:43:48;;;;;;;9.77;8.00;;;;;;;;;;5094151;28;20225;-89
2022/07/22 04:46:15;;;;;;;9.57;7.87;;;;;;;;;;5094011;28;20611;-89
2022/07/22 04:48:43;;;;;;;8.63;7.10;;;;;;;;;;5093865;28;20640;-89
2022/07/22 04:51:10;;;;;;;8.70;6.83;;;;;;;;;;5094108;28;20228;-88
2022/07/22 04:53:37;;;;;;;9.07;7.20;;;;;;;;;;5102366;28;20236;-89
2022/07/22 04:56:05;;;;;;;8.47;7.07;;;;;;;;;;5104374;28;20211;-89
2022/07/22 04:58:32;;;;;;;7.50;6.73;;;;;;;;;;5095883;28;20239;-89
2022/07/22 05:00:59;;;;;;;9.00;6.77;;;;;;;;;;5096856;28;20235;-89
2022/07/22 05:03:26;;;;;;;7.90;7.07;;;;;;;;;;5098331;28;20239;-89
2022/07/22 05:05:54;;;;;;;8.87;7.67;;;;;;;;;;5113809;28;20205;-89
2022/07/22 05:08:21;;;;;;;8.20;7.40;;;;;;;;;;5101673;28;20236;-88
2022/07/22 05:10:48;;;;;;;8.63;7.73;;;;;;;;;;5101756;28;20228;-90
2022/07/22 05:13:26;;;;;;;9.60;7.97;;;;;;;;;;5099343;28;20251;-86
2022/07/22 05:15:53;;;;;;;9.70;8.03;;;;;;;;;;5099411;28;20208;-86
2022/07/22 05:18:20;;;;;;;11.83;7.90;;;;;;;;;;5098805;28;20229;-84
2022/07/22 05:20:48;;;;;;;9.10;7.90;;;;;;;;;;5098817;28;20318;-86
2022/07/22 05:23:16;;;;;;;10.53;8.27;;;;;;;;;;5097069;28;20243;-85
2022/07/22 05:25:43;;;;;;;8.90;8.00;;;;;;;;;;5097159;28;20209;-87
2022/07/22 05:28:11;;;;;;;9.37;8.37;;;;;;;;;;5096973;28;20244;-84
2022/07/22 05:30:38;;;;;;;10.90;9.00;;;;;;;;;;5098341;28;20232;-87
2022/07/22 05:33:05;;;;;;;11.87;8.57;;;;;;;;;;5098654;28;20300;-87
2022/07/22 05:35:32;;;;;;;10.10;8.63;;;;;;;;;;5098936;28;20664;-87
2022/07/22 05:37:59;;;;;;;12.47;8.90;;;;;;;;;;5097196;28;20766;-87
2022/07/22 05:40:28;;;;;;;11.50;8.27;;;;;;;;;;5098356;28;20225;-87
2022/07/22 05:42:55;;;;;;;10.48;8.93;;;;;;;;;;5097439;28;20240;-87
2022/07/22 05:45:22;;;;;;;11.87;7.93;;;;;;;;;;5097140;28;20192;-87
2022/07/22 05:48:07;;;;;;;7.80;6.93;;;;;;;;;;5096949;28;20236;-88
2022/07/22 05:50:34;;;;;;;9.20;7.82;;;;;;;;;;5108893;28;20224;-88
2022/07/22 05:53:01;;;;;;;7.57;6.78;;;;;;;;;;5097245;28;20426;-88
2022/07/22 05:55:29;;;;;;;7.40;6.23;;;;;;;;;;5099420;28;20193;-88
2022/07/22 05:57:56;;;;;;;7.82;6.32;;;;;;;;;;5096828;28;20232;-88
2022/07/22 06:00:24;;;;;;;8.85;7.47;;;;;;;;;;5097256;28;20236;-87
2022/07/22 06:02:51;;;;;;;9.95;7.40;;;;;;;;;;5095643;28;20228;-88
2022/07/22 06:05:18;;;;;;;8.82;6.40;;;;;;;;;;5096446;28;20676;-88
2022/07/22 06:07:45;;;;;;;8.35;6.28;;;;;;;;;;5095630;28;20236;-88
2022/07/22 06:10:12;;;;;;;11.55;7.65;;;;;;;;;;5095665;28;20227;-87
2022/07/22 06:12:40;;;;;;;8.45;7.10;;;;;;;;;;5095656;28;20232;-88
2022/07/22 06:15:07;;;;;;;8.00;7.05;;;;;;;;;;5095737;28;20205;-87
2022/07/22 06:17:34;;;;;;;7.03;6.32;;;;;;;;;;5095828;28;20624;-86
2022/07/22 06:20:02;;;;;;;11.77;7.40;;;;;;;;;;5097029;28;20221;-84
2022/07/22 06:22:29;;;;;;;8.48;6.90;;;;;;;;;;5097475;28;20212;-87
2022/07/22 06:24:56;;;;;;;7.93;6.68;;;;;;;;;;5098016;28;20204;-87
2022/07/22 06:27:23;;;;;;;8.77;6.97;;;;;;;;;;5095315;28;20207;-87
2022/07/22 06:29:52;;;;;;;6.70;6.00;;;;;;;;;;5096701;28;20229;-87
2022/07/22 06:32:37;;;;;;;8.52;6.22;;;;;;;;;;5095104;28;20734;-87
2022/07/22 06:35:04;;;;;;;10.55;5.93;;;;;;;;;;5095034;28;20196;-86
2022/07/22 06:37:31;;;;;;;9.07;6.53;;;;;;;;;;5095079;27;20208;-87
2022/07/22 06:40:05;;;;;;;7.18;5.68;;;;;;;;;;5074905;28;20712;-86
2022/07/22 06:42:32;;;;;;;8.02;5.65;;;;;;;;;;5075194;28;20190;-86
2022/07/22 06:45:00;;;;;;;6.93;5.57;;;;;;;;;;5077211;28;20545;-86
2022/07/22 06:47:27;;;;;;;7.53;5.40;;;;;;;;;;5075123;28;20296;-86
2022/07/22 06:49:54;;;;;;;8.20;5.55;;;;;;;;;;5075061;28;20229;-86
2022/07/22 06:52:22;;;;;;;5.72;5.15;;;;;;;;;;5074243;28;20559;-86
2022/07/22 06:54:50;;;;;;;5.90;5.25;;;;;;;;;;5075323;28;20232;-87
2022/07/22 06:57:17;;;;;;;5.40;4.90;;;;;;;;;;5074739;28;20210;-87
2022/07/22 06:59:45;;;;;;;6.20;4.90;;;;;;;;;;5075211;28;20233;-86
2022/07/22 07:02:13;;;;;;;6.68;5.07;;;;;;;;;;5075117;28;20201;-86
2022/07/22 07:04:40;;;;;;;7.72;5.40;;;;;;;;;;5074924;28;20236;-86
2022/07/22 07:07:07;;;;;;;7.45;4.70;;;;;;;;;;5075252;28;20201;-86
2022/07/22 07:09:34;;;;;;;7.00;4.85;;;;;;;;;;5074664;28;20240;-86
2022/07/22 07:12:01;;;;;;;5.13;4.63;;;;;;;;;;5074619;28;20707;-86
2022/07/22 07:14:28;;;;;;;5.45;4.95;;;;;;;;;;5074229;28;20237;-86
2022/07/22 07:16:55;;;;;;;6.25;4.60;;;;;;;;;;5090691;28;20231;-86
2022/07/22 07:19:24;;;;;;;4.65;4.25;;;;;;;;;;5096736;28;20237;-87
2022/07/22 07:21:51;;;;;;;5.28;4.75;;;;;;;;;;5079127;28;20201;-86
2022/07/22 07:24:18;;;;;;;5.15;4.32;;;;;;;;;;5074284;28;20236;-87
2022/07/22 07:26:45;;;;;;;4.72;4.22;;;;;;;;;;5074100;28;20210;-87
2022/07/22 07:29:12;;;;;;;5.03;4.18;;;;;;;;;;5074409;28;20233;-87
2022/07/22 07:31:39;;;;;;;6.93;4.47;;;;;;;;;;5075125;28;20232;-87
2022/07/22 07:34:06;;;;;;;5.40;3.92;;;;;;;;;;5073903;28;20244;-87
2022/07/22 07:36:35;;;;;;;4.40;4.00;;;;;;;;;;5073998;28;20716;-87
2022/07/22 07:39:02;;;;;;;4.72;4.30;;;;;;;;;;5073410;28;20229;-87
2022/07/22 07:41:29;;;;;;;4.53;4.10;;;;;;;;;;5073920;28;20207;-87
2022/07/22 07:43:56;;;;;;;5.60;3.83;;;;;;;;;;5073565;28;20248;-87
2022/07/22 07:46:24;;;;;;;4.35;3.95;;;;;;;;;;5074098;28;20205;-87
2022/07/22 07:48:52;;;;;;;3.90;3.60;;;;;;;;;;5073353;28;20233;-87
2022/07/22 07:51:19;;;;;;;5.40;3.80;;;;;;;;;;5074312;28;20700;-87
2022/07/22 07:53:47;;;;;;;4.60;3.55;;;;;;;;;;5073495;28;20236;-87
2022/07/22 07:56:15;;;;;;;4.38;3.83;;;;;;;;;;5074465;28;20564;-87
2022/07/22 07:58:42;;;;;;;6.50;3.88;;;;;;;;;;5073744;28;20248;-87
2022/07/22 08:01:09;;;;;;;4.20;3.80;;;;;;;;;;5073880;28;20625;-86
2022/07/22 08:03:36;;;;;;;4.55;3.40;;;;;;;;;;5073458;28;20765;-85
2022/07/22 08:06:03;;;;;;;3.70;3.40;;;;;;;;;;5074327;28;20213;-85
2022/07/22 08:08:30;;;;;;;3.90;3.53;;;;;;;;;;5080052;28;20225;-85
2022/07/22 08:10:58;;;;;;;4.90;3.70;;;;;;;;;;5073449;28;20221;-84
2022/07/22 08:13:25;;;;;;;5.22;3.75;;;;;;;;;;5079395;28;20264;-86
2022/07/22 08:15:52;;;;;;;5.40;4.13;;;;;;;;;;5077820;28;20877;-85
2022/07/22 08:18:19;;;;;;;4.70;4.15;;;;;;;;;;5074472;28;20244;-85
2022/07/22 08:20:46;;;;;;;3.92;3.60;;;;;;;;;;5073685;28;20252;-86
2022/07/22 08:23:14;;;;;;;3.80;3.50;;;;;;;;;;5072699;28;20236;-86
2022/07/22 08:25:41;;;;;;;4.05;3.67;;;;;;;;;;5073114;28;20209;-84
2022/07/22 08:28:09;;;;;;;3.92;3.47;;;;;;;;;;5071919;28;20248;-86
2022/07/22 08:30:36;;;;;;;3.80;3.50;;;;;;;;;;5072584;28;20256;-87
2022/07/22 08:33:04;;;;;;;3.80;3.50;;;;;;;;;;5072526;28;20264;-87
2022/07/22 08:35:31;;;;;;;3.70;3.22;;;;;;;;;;5072887;28;20198;-86
2022/07/22 08:37:58;;;;;;;3.88;3.10;;;;;;;;;;5073683;28;20232;-87
2022/07/22 08:40:25;;;;;;;4.13;3.58;;;;;;;;;;5076611;28;20227;-83
2022/07/22 08:42:52;;;;;;;4.10;3.30;;;;;;;;;;5081276;28;20229;-82
2022/07/22 08:45:21;;;;;;;4.22;3.67;;;;;;;;;;5082464;28;20209;-82
2022/07/22 08:47:49;;;;;;;3.53;3.22;;;;;;;;;;5080813;28;20239;-82
2022/07/22 08:50:17;;;;;;;4.25;3.83;;;;;;;;;;5082287;28;20221;-82
2022/07/22 08:52:44;;;;;;;3.88;3.47;;;;;;;;;;5079652;28;20550;-83
2022/07/22 08:55:11;;;;;;;3.72;2.97;;;;;;;;;;5080222;28;20216;-81
2022/07/22 08:57:39;;;;;;;3.40;3.05;;;;;;;;;;5080125;28;20233;-82
2022/07/22 09:00:10;;;;;;;3.28;2.97;;;;;;;;;;5079211;28;20241;-82
2022/07/22 09:02:40;;;;;;;3.70;3.28;;;;;;;;;;5078471;28;20738;-83
2022/07/22 09:05:08;;;;;;;3.38;3.08;;;;;;;;;;5077060;28;20219;-84
2022/07/22 09:07:37;;;;;;;4.90;2.97;;;;;;;;;;5078571;28;20727;-83
2022/07/22 09:10:06;;;;;;;3.88;3.58;;;;;;;;;;5095988;28;20212;-82
2022/07/22 09:12:34;;;;;;;3.67;3.38;;;;;;;;;;5095356;28;20217;-83
2022/07/22 09:15:02;;;;;;;3.40;3.10;;;;;;;;;;5098334;28;20213;-80
2022/07/22 09:17:30;;;;;;;3.13;2.90;;;;;;;;;;5103384;28;20266;-81
2022/07/22 09:19:59;;;;;;;4.07;3.60;;;;;;;;;;5099726;28;20229;-82
2022/07/22 09:22:33;;;;;;;4.28;2.95;;;;;;;;;;5096141;27;20205;-84
2022/07/22 09:25:00;;;;;;;3.25;2.83;;;;;;;;;;5095529;28;20676;-83
2022/07/22 09:27:28;;;;;;;5.35;3.58;;;;;;;;;;5095303;28;20205;-84
2022/07/22 09:29:56;;;;;;;3.03;2.72;;;;;;;;;;5096617;28;20228;-87
2022/07/22 09:32:24;;;;;;;3.35;3.03;;;;;;;;;;5095922;28;20319;-87
2022/07/22 09:34:51;;;;;;;3.13;2.83;;;;;;;;;;5096407;28;20185;-86
2022/07/22 09:37:20;;;;;;;2.92;2.72;;;;;;;;;;5095644;28;20567;-86
2022/07/22 09:39:47;;;;;;;3.47;3.17;;;;;;;;;;5095701;28;20224;-87
2022/07/22 09:42:16;;;;;;;3.45;3.10;;;;;;;;;;5095319;28;20212;-87
2022/07/22 09:44:43;;;;;;;3.03;2.83;;;;;;;;;;5095551;28;20212;-86
2022/07/22 09:47:27;;;;;;;3.30;3.10;;;;;;;;;;5095901;28;20212;-86
2022/07/22 09:49:54;;;;;;;3.03;2.83;;;;;;;;;;5094341;28;20228;-86
2022/07/22 09:52:24;;;;;;;3.67;3.08;;;;;;;;;;5095109;28;20228;-87
2022/07/22 09:54:52;;;;;;;3.00;2.80;;;;;;;;;;5095660;28;20209;-88
2022/07/22 09:57:19;;;;;;;3.30;3.00;;;;;;;;;;5096035;28;20714;-87
2022/07/22 09:59:46;;;;;;;3.08;2.88;;;;;;;;;;5084554;28;20224;-87
2022/07/22 10:02:13;;;;;;;2.75;2.55;;;;;;;;;;5096023;28;20684;-86
2022/07/22 10:04:42;;;;;;;3.03;2.65;;;;;;;;;;5095175;28;20229;-87
2022/07/22 10:07:09;;;;;;;2.72;2.53;;;;;;;;;;5095439;28;20204;-86
2022/07/22 10:09:38;;;;;;;3.90;2.70;;;;;;;;;;5094553;28;20236;-87
2022/07/22 10:12:07;;;;;;;3.00;2.75;;;;;;;;;;5094718;28;20719;-87
2022/07/22 10:14:37;;;;;;;3.50;3.20;;;;;;;;;;5095122;28;20240;-87
2022/07/22 10:17:04;;;;;;;3.40;3.10;;;;;;;;;;5096163;28;20718;-87
2022/07/22 10:19:31;;;;;;;3.35;3.05;;;;;;;;;;5095479;28;20590;-86
2022/07/22 10:21:59;;;;;;;3.90;3.03;;;;;;;;;;5100342;28;20617;-87
2022/07/22 10:24:26;;;;;;;3.25;2.78;;;;;;;;;;5095108;28;20236;-87
2022/07/22 10:26:56;;;;;;;2.88;2.67;;;;;;;;;;5096222;28;20211;-87
2022/07/22 10:29:26;;;;;;;2.97;2.60;;;;;;;;;;5096358;28;20259;-87
2022/07/22 10:32:08;;;;;;;3.10;2.90;;;;;;;;;;5096322;28;20207;-87
2022/07/22 10:34:35;;;;;;;3.17;2.95;;;;;;;;;;5096114;28;20239;-87
2022/07/22 10:37:03;;;;;;;3.10;2.90;;;;;;;;;;5097467;28;20211;-87
2022/07/22 10:39:30;;;;;;;3.20;2.90;;;;;;;;;;5097420;28;20231;-88
2022/07/22 10:41:59;;;;;;;4.95;2.92;;;;;;;;;;5104105;28;20223;-88
2022/07/22 10:44:44;;;;;;;3.15;2.90;;;;;;;;;;5113163;28;20235;-87
2022/07/22 10:47:11;;;;;;;2.97;2.72;;;;;;;;;;5114618;28;20202;-88
2022/07/22 10:49:38;;;;;;;3.35;3.05;;;;;;;;;;5116683;28;20216;-88
2022/07/22 10:52:16;;;;;;;2.78;2.58;;;;;;;;;;5120081;28;20184;-87
2022/07/22 10:55:02;;;;;;;2.60;2.38;;;;;;;;;;5107336;28;20223;-88
2022/07/22 10:57:33;;;;;;;3.00;2.80;;;;;;;;;;5102973;28;20212;-86
2022/07/22 11:00:01;;;;;;;3.03;2.83;;;;;;;;;;5101311;28;20231;-88
2022/07/22 11:02:28;;;;;;;3.17;2.90;;;;;;;;;;5107926;28;20200;-88
2022/07/22 11:04:55;;;;;;;2.78;2.58;;;;;;;;;;5117512;28;20207;-88
2022/07/22 11:07:24;;;;;;;3.03;2.72;;;;;;;;;;5104978;22;20300;-87
2022/07/22 11:09:51;;;;;;;3.83;2.78;;;;;;;;;;5073172;28;20216;-85
2022/07/22 11:12:18;;;;;;;3.25;2.95;;;;;;;;;;5072618;28;20683;-87
2022/07/22 11:14:46;;;;;;;3.63;2.53;;;;;;;;;;5073132;28;20668;-86
2022/07/22 11:17:14;;;;;;;3.05;2.75;;;;;;;;;;5073264;28;20221;-86
2022/07/22 11:19:45;;;;;;;8.75;6.57;;;;;;;;;;5072485;28;20212;-86
2022/07/22 11:22:14;;;;;;;3.33;3.05;;;;;;;;;;5072531;28;20649;-88
2022/07/22 11:24:41;;;;;;;3.45;3.15;;;;;;;;;;5072280;28;20220;-83
2022/07/22 11:27:11;;;;;;;2.90;2.70;;;;;;;;;;5072437;28;20228;-86
2022/07/22 11:29:41;;;;;;;2.85;2.58;;;;;;;;;;5071844;28;20347;-87
2022/07/22 11:32:11;;;;;;;2.90;2.70;;;;;;;;;;5072435;28;20193;-86
2022/07/22 11:34:42;;;;;;;2.72;2.50;;;;;;;;;;5071750;28;20232;-88
2022/07/22 11:37:09;;;;;;;2.60;2.40;;;;;;;;;;5072603;28;20246;-87
2022/07/22 11:39:38;;;;;;;3.08;2.42;;;;;;;;;;5072048;28;20239;-86
2022/07/22 11:42:06;;;;;;;2.50;2.40;;;;;;;;;;5071957;28;20195;-87
2022/07/22 11:44:34;;;;;;;2.95;2.45;;;;;;;;;;5071515;28;20602;-86
2022/07/22 11:47:02;;;;;;;2.75;2.63;;;;;;;;;;5071815;28;20225;-86
2022/07/22 11:49:33;;;;;;;2.80;2.60;;;;;;;;;;5071359;28;20243;-87
2022/07/22 11:52:00;;;;;;;3.15;2.13;;;;;;;;;;5071665;28;20215;-85
2022/07/22 11:54:27;;;;;;;2.40;2.28;;;;;;;;;;5071285;28;20237;-86
2022/07/22 11:56:56;;;;;;;2.47;2.35;;;;;;;;;;5072098;28;20233;-86
2022/07/22 11:59:23;;;;;;;2.60;2.40;;;;;;;;;;5071554;28;20251;-86
2022/07/22 12:01:50;;;;;;;3.22;2.70;;;;;;;;;;5071687;28;20220;-86
2022/07/22 12:04:18;;;;;;;2.90;2.60;;;;;;;;;;5071329;28;20596;-86
2022/07/22 12:06:47;;;;;;;2.58;2.42;;;;;;;;;;5071308;28;20762;-87
2022/07/22 12:09:15;;;;;;;2.70;2.45;;;;;;;;;;5071164;28;20232;-86
2022/07/22 12:11:43;;;;;;;3.00;2.80;;;;;;;;;;5071742;28;20208;-86
2022/07/22 12:14:10;;;;;;;3.20;2.92;;;;;;;;;;5070518;28;20228;-86
2022/07/22 12:16:38;;;;;;;3.67;2.92;;;;;;;;;;5072404;28;20612;-86
2022/07/22 12:19:06;;;;;;;3.40;3.08;;;;;;;;;;5071878;28;20243;-87
2022/07/22 12:21:34;;;;;;;4.50;2.45;;;;;;;;;;5072186;28;20209;-87
2022/07/22 12:24:05;;;;;;;3.05;2.85;;;;;;;;;;5071872;28;20254;-87
2022/07/22 12:26:39;;;;;;;3.58;2.80;;;;;;;;;;5074939;28;20274;-87
2022/07/22 12:29:16;;;;;;;3.47;3.17;;;;;;;;;;5078872;28;20232;-87
2022/07/22 12:31:44;;;;;;;3.17;2.90;;;;;;;;;;5076101;28;20211;-87
2022/07/22 12:34:11;;;;;;;3.38;3.10;;;;;;;;;;5074547;28;20228;-87
2022/07/22 12:36:38;;;;;;;4.85;3.13;;;;;;;;;;5073272;28;20307;-87
2022/07/22 12:39:14;;;;;;;3.65;2.75;;;;;;;;;;5072544;28;20601;-87
2022/07/22 12:41:46;;;;;;;3.35;3.05;;;;;;;;;;5073992;28;20283;-87
2022/07/22 12:44:16;;;;;;;3.10;2.90;;;;;;;;;;5074418;28;20234;-87
2022/07/22 12:46:46;;;;;;;3.25;2.92;;;;;;;;;;5074346;28;20221;-89
2022/07/22 12:49:13;;;;;;;3.53;3.22;;;;;;;;;;5079582;28;20734;-88
2022/07/22 12:51:41;;;;;;;3.40;3.10;;;;;;;;;;5086423;28;20208;-90
2022/07/22 12:54:08;;;;;;;3.28;3.05;;;;;;;;;;5078634;28;20228;-89
2022/07/22 12:56:39;;;;;;;3.15;2.85;;;;;;;;;;5073030;28;20224;-86
2022/07/22 12:59:06;;;;;;;3.53;2.97;;;;;;;;;;5072112;28;20240;-86
2022/07/22 13:01:33;;;;;;;3.35;3.05;;;;;;;;;;5072662;28;20664;-86
2022/07/22 13:04:00;;;;;;;3.90;2.80;;;;;;;;;;5073737;28;20229;-86
2022/07/22 13:06:27;;;;;;;3.30;3.00;;;;;;;;;;5073612;28;20252;-86
2022/07/22 13:08:54;;;;;;;3.78;3.22;;;;;;;;;;5071487;28;20240;-86
2022/07/22 13:11:21;;;;;;;3.58;3.15;;;;;;;;;;5071891;28;20227;-86
2022/07/22 13:13:50;;;;;;;3.97;2.70;;;;;;;;;;5072337;28;20312;-86
2022/07/22 13:16:17;;;;;;;3.30;3.00;;;;;;;;;;5072137;28;20583;-87
2022/07/22 13:18:44;;;;;;;3.38;3.08;;;;;;;;;;5072384;28;20239;-87
2022/07/22 13:21:11;;;;;;;3.70;3.20;;;;;;;;;;5072914;28;20205;-88
2022/07/22 13:23:38;;;;;;;3.10;2.90;;;;;;;;;;5072058;28;20228;-86
2022/07/22 13:26:06;;;;;;;3.10;2.83;;;;;;;;;;5075650;28;20228;-86
2022/07/22 13:28:33;;;;;;;3.65;3.15;;;;;;;;;;5075307;28;20711;-87
2022/07/22 13:31:02;;;;;;;3.53;3.22;;;;;;;;;;5075763;28;20205;-86
2022/07/22 13:33:29;;;;;;;3.00;2.80;;;;;;;;;;5074986;28;20236;-85
2022/07/22 13:35:56;;;;;;;3.03;2.75;;;;;;;;;;5075149;28;20220;-86
2022/07/22 13:38:23;;;;;;;3.28;2.92;;;;;;;;;;5074906;28;20232;-85
2022/07/22 13:40:51;;;;;;;3.33;3.05;;;;;;;;;;5075011;28;20577;-86
2022/07/22 13:43:18;;;;;;;3.58;3.28;;;;;;;;;;5074583;28;20224;-86
2022/07/22 13:45:45;;;;;;;4.05;3.22;;;;;;;;;;5074899;28;20247;-86
2022/07/22 13:48:14;;;;;;;3.17;2.97;;;;;;;;;;5074503;28;20236;-86
2022/07/22 13:50:41;;;;;;;3.78;2.92;;;;;;;;;;5075671;28;20308;-86
2022/07/22 13:53:08;;;;;;;3.13;2.80;;;;;;;;;;5074479;28;20235;-85
2022/07/22 13:55:35;;;;;;;3.92;3.30;;;;;;;;;;5075033;28;20295;-86
2022/07/22 13:58:02;;;;;;;3.03;2.80;;;;;;;;;;5074709;28;20233;-86
2022/07/22 14:00:29;;;;;;;3.13;2.90;;;;;;;;;;5075214;28;20215;-85
2022/07/22 14:02:56;;;;;;;3.60;3.10;;;;;;;;;;5074380;28;20594;-86
2022/07/22 14:05:25;;;;;;;3.40;3.10;;;;;;;;;;5075108;28;20568;-86
2022/07/22 14:07:52;;;;;;;3.35;3.05;;;;;;;;;;5074639;28;20241;-86
2022/07/22 14:10:19;;;;;;;3.85;3.10;;;;;;;;;;5074765;28;20208;-85
2022/07/22 14:12:47;;;;;;;3.30;2.85;;;;;;;;;;5074195;28;20696;-86
2022/07/22 14:15:14;;;;;;;3.40;3.10;;;;;;;;;;5075956;28;20246;-86
2022/07/22 14:17:41;;;;;;;3.08;2.80;;;;;;;;;;5074311;28;20240;-85
2022/07/22 14:20:09;;;;;;;5.40;3.35;;;;;;;;;;5075142;28;20661;-85
2022/07/22 14:22:37;;;;;;;4.25;3.13;;;;;;;;;;5077054;28;20228;-85
2022/07/22 14:25:05;;;;;;;3.90;3.25;;;;;;;;;;5085307;28;20209;-86
2022/07/22 14:27:32;;;;;;;2.97;2.78;;;;;;;;;;5073888;28;20216;-86
2022/07/22 14:29:59;;;;;;;4.05;3.28;;;;;;;;;;5074426;28;20205;-85
2022/07/22 14:32:26;;;;;;;3.72;3.40;;;;;;;;;;5073785;28;20212;-86
2022/07/22 14:34:53;;;;;;;2.90;2.70;;;;;;;;;;5074725;28;20232;-85
2022/07/22 14:37:20;;;;;;;3.50;3.08;;;;;;;;;;5072970;28;20224;-85
2022/07/22 14:39:48;;;;;;;3.60;3.30;;;;;;;;;;5073814;28;20205;-85
2022/07/22 14:42:15;;;;;;;4.97;3.13;;;;;;;;;;5073239;28;20220;-86
2022/07/22 14:44:42;;;;;;;2.80;2.60;;;;;;;;;;5074286;28;20185;-86
2022/07/22 14:47:10;;;;;;;3.33;3.00;;;;;;;;;;5074305;28;20224;-87